sensor_id;sensor_type;location;lat;lon;timestamp;temperature;humidity
12043;DHT22;6082;49.306;12.862;2024-03-02T00:00:11;6.30;99.90
12043;DHT22;6082;49.306;12.862;2024-03-02T00:02:43;6.30;99.90
12043;DHT22;6082;49.306;12.862;2024-03-02T00:05:21;6.30;99.90
12043;DHT22;6082;49.306;12.862;2024-03-02T00:07:55;6.30;99.90
12043;DHT22;6082;49.306;12.862;2024-03-02T00:10:25;6.30;99.90
12043;DHT22;6082;49.306;12.862;2024-03-02T00:12:57;6.30;99.90
12043;DHT22;6082;49.306;12.862;2024-03-02T00:18:18;6.30;99.90
12043;DHT22;6082;49.306;12.862;2024-03-02T00:20:45;6.30;99.90
12043;DHT22;6082;49.306;12.862;2024-03-02T00:23:15;6.30;99.90
12043;DHT22;6082;49.306;12.862;2024-03-02T00:28:27;6.30;99.90
12043;DHT22;6082;49.306;12.862;2024-03-02T00:30:56;6.30;99.90
12043;DHT22;6082;49.306;12.862;2024-03-02T00:33:24;6.30;99.90
12043;DHT22;6082;49.306;12.862;2024-03-02T00:35:51;6.20;99.90
12043;DHT22;6082;49.306;12.862;2024-03-02T00:38:17;6.30;99.90
12043;DHT22;6082;49.306;12.862;2024-03-02T00:40:44;6.30;99.90
12043;DHT22;6082;49.306;12.862;2024-03-02T00:43:45;6.20;99.90
12043;DHT22;6082;49.306;12.862;2024-03-02T00:46:15;6.30;99.90
12043;DHT22;6082;49.306;12.862;2024-03-02T00:48:48;6.20;99.90
12043;DHT22;6082;49.306;12.862;2024-03-02T00:51:16;6.20;99.90
12043;DHT22;6082;49.306;12.862;2024-03-02T00:53:42;6.20;99.90
12043;DHT22;6082;49.306;12.862;2024-03-02T00:56:11;6.20;99.90
12043;DHT22;6082;49.306;12.862;2024-03-02T00:58:38;6.20;99.90
12043;DHT22;6082;49.306;12.862;2024-03-02T01:01:03;6.20;99.90
12043;DHT22;6082;49.306;12.862;2024-03-02T01:03:31;6.20;99.90
12043;DHT22;6082;49.306;12.862;2024-03-02T01:05:56;6.10;99.90
12043;DHT22;6082;49.306;12.862;2024-03-02T01:08:24;6.20;99.90
12043;DHT22;6082;49.306;12.862;2024-03-02T01:10:49;6.10;99.90
12043;DHT22;6082;49.306;12.862;2024-03-02T01:13:15;6.10;99.90
12043;DHT22;6082;49.306;12.862;2024-03-02T01:15:41;6.10;99.90
12043;DHT22;6082;49.306;12.862;2024-03-02T01:18:06;6.10;99.90
12043;DHT22;6082;49.306;12.862;2024-03-02T01:20:32;6.10;99.90
12043;DHT22;6082;49.306;12.862;2024-03-02T01:22:58;6.10;99.90
12043;DHT22;6082;49.306;12.862;2024-03-02T01:25:23;6.10;99.90
12043;DHT22;6082;49.306;12.862;2024-03-02T01:27:50;6.10;99.90
12043;DHT22;6082;49.306;12.862;2024-03-02T01:30:16;6.10;99.90
12043;DHT22;6082;49.306;12.862;2024-03-02T01:32:42;6.10;99.90
12043;DHT22;6082;49.306;12.862;2024-03-02T01:35:08;6.20;99.90
12043;DHT22;6082;49.306;12.862;2024-03-02T01:37:34;6.20;99.90
12043;DHT22;6082;49.306;12.862;2024-03-02T01:40:00;6.10;99.90
12043;DHT22;6082;49.306;12.862;2024-03-02T01:42:26;6.10;99.90
12043;DHT22;6082;49.306;12.862;2024-03-02T01:44:52;6.10;99.90
12043;DHT22;6082;49.306;12.862;2024-03-02T01:47:18;6.10;99.90
12043;DHT22;6082;49.306;12.862;2024-03-02T01:49:43;6.20;99.90
12043;DHT22;6082;49.306;12.862;2024-03-02T01:52:09;6.20;99.90
12043;DHT22;6082;49.306;12.862;2024-03-02T01:54:36;6.20;99.90
12043;DHT22;6082;49.306;12.862;2024-03-02T01:57:02;6.10;99.90
12043;DHT22;6082;49.306;12.862;2024-03-02T01:59:28;6.20;99.90
12043;DHT22;6082;49.306;12.862;2024-03-02T02:01:53;6.20;99.90
12043;DHT22;6082;49.306;12.862;2024-03-02T02:04:19;6.20;99.90
12043;DHT22;6082;49.306;12.862;2024-03-02T02:06:47;6.20;99.90
12043;DHT22;6082;49.306;12.862;2024-03-02T02:09:12;6.20;99.90
12043;DHT22;6082;49.306;12.862;2024-03-02T02:11:38;6.20;99.90
12043;DHT22;6082;49.306;12.862;2024-03-02T02:14:04;6.20;99.90
12043;DHT22;6082;49.306;12.862;2024-03-02T02:16:31;6.20;99.90
12043;DHT22;6082;49.306;12.862;2024-03-02T02:18:57;6.20;99.90
12043;DHT22;6082;49.306;12.862;2024-03-02T02:21:23;6.20;99.90
12043;DHT22;6082;49.306;12.862;2024-03-02T02:23:48;6.20;99.90
12043;DHT22;6082;49.306;12.862;2024-03-02T02:26:15;6.20;99.90
12043;DHT22;6082;49.306;12.862;2024-03-02T02:28:41;6.20;99.90
12043;DHT22;6082;49.306;12.862;2024-03-02T02:31:15;6.20;99.90
12043;DHT22;6082;49.306;12.862;2024-03-02T02:33:42;6.20;99.90
12043;DHT22;6082;49.306;12.862;2024-03-02T02:36:08;6.20;99.90
12043;DHT22;6082;49.306;12.862;2024-03-02T02:38:39;6.20;99.90
12043;DHT22;6082;49.306;12.862;2024-03-02T02:41:05;6.20;99.90
12043;DHT22;6082;49.306;12.862;2024-03-02T02:43:31;6.20;99.90
12043;DHT22;6082;49.306;12.862;2024-03-02T02:45:57;6.20;99.90
12043;DHT22;6082;49.306;12.862;2024-03-02T02:48:22;6.20;99.90
12043;DHT22;6082;49.306;12.862;2024-03-02T02:50:48;6.20;99.90
12043;DHT22;6082;49.306;12.862;2024-03-02T02:53:14;6.20;99.90
12043;DHT22;6082;49.306;12.862;2024-03-02T02:55:40;6.20;99.90
12043;DHT22;6082;49.306;12.862;2024-03-02T02:58:08;6.20;99.90
12043;DHT22;6082;49.306;12.862;2024-03-02T03:00:34;6.20;99.90
12043;DHT22;6082;49.306;12.862;2024-03-02T03:02:59;6.20;99.90
12043;DHT22;6082;49.306;12.862;2024-03-02T03:05:25;6.20;99.90
12043;DHT22;6082;49.306;12.862;2024-03-02T03:07:51;6.20;99.90
12043;DHT22;6082;49.306;12.862;2024-03-02T03:10:17;6.20;99.90
12043;DHT22;6082;49.306;12.862;2024-03-02T03:12:43;6.20;99.90
12043;DHT22;6082;49.306;12.862;2024-03-02T03:15:11;6.20;99.90
12043;DHT22;6082;49.306;12.862;2024-03-02T03:17:38;6.20;99.90
12043;DHT22;6082;49.306;12.862;2024-03-02T03:20:04;6.20;99.90
12043;DHT22;6082;49.306;12.862;2024-03-02T03:22:31;6.20;99.90
12043;DHT22;6082;49.306;12.862;2024-03-02T03:25:00;6.20;99.90
12043;DHT22;6082;49.306;12.862;2024-03-02T03:27:26;6.20;99.90
12043;DHT22;6082;49.306;12.862;2024-03-02T03:29:52;6.20;99.90
12043;DHT22;6082;49.306;12.862;2024-03-02T03:32:17;6.20;99.90
12043;DHT22;6082;49.306;12.862;2024-03-02T03:34:43;6.20;99.90
12043;DHT22;6082;49.306;12.862;2024-03-02T03:37:09;6.20;99.90
12043;DHT22;6082;49.306;12.862;2024-03-02T03:39:35;6.20;99.90
12043;DHT22;6082;49.306;12.862;2024-03-02T03:42:01;6.20;99.90
12043;DHT22;6082;49.306;12.862;2024-03-02T03:44:27;6.20;99.90
12043;DHT22;6082;49.306;12.862;2024-03-02T03:46:53;6.20;99.90
12043;DHT22;6082;49.306;12.862;2024-03-02T03:49:18;6.20;99.90
12043;DHT22;6082;49.306;12.862;2024-03-02T03:51:44;6.20;99.90
12043;DHT22;6082;49.306;12.862;2024-03-02T03:54:10;6.20;99.90
12043;DHT22;6082;49.306;12.862;2024-03-02T03:56:37;6.20;99.90
12043;DHT22;6082;49.306;12.862;2024-03-02T03:59:02;6.20;99.90
12043;DHT22;6082;49.306;12.862;2024-03-02T04:01:28;6.20;99.90
12043;DHT22;6082;49.306;12.862;2024-03-02T04:03:54;6.20;99.90
12043;DHT22;6082;49.306;12.862;2024-03-02T04:06:20;6.20;99.90
12043;DHT22;6082;49.306;12.862;2024-03-02T04:08:46;6.20;99.90
12043;DHT22;6082;49.306;12.862;2024-03-02T04:11:11;6.20;99.90
12043;DHT22;6082;49.306;12.862;2024-03-02T04:13:37;6.20;99.90
12043;DHT22;6082;49.306;12.862;2024-03-02T04:16:03;6.20;99.90
12043;DHT22;6082;49.306;12.862;2024-03-02T04:18:30;6.20;99.90
12043;DHT22;6082;49.306;12.862;2024-03-02T04:20:57;6.20;99.90
12043;DHT22;6082;49.306;12.862;2024-03-02T04:23:25;6.20;99.90
12043;DHT22;6082;49.306;12.862;2024-03-02T04:25:51;6.20;99.90
12043;DHT22;6082;49.306;12.862;2024-03-02T04:28:17;6.20;99.90
12043;DHT22;6082;49.306;12.862;2024-03-02T04:30:46;6.20;99.90
12043;DHT22;6082;49.306;12.862;2024-03-02T04:33:11;6.20;99.90
12043;DHT22;6082;49.306;12.862;2024-03-02T04:35:37;6.20;99.90
12043;DHT22;6082;49.306;12.862;2024-03-02T04:38:03;6.20;99.90
12043;DHT22;6082;49.306;12.862;2024-03-02T04:40:28;6.20;99.90
12043;DHT22;6082;49.306;12.862;2024-03-02T04:42:54;6.20;99.90
12043;DHT22;6082;49.306;12.862;2024-03-02T04:45:20;6.20;99.90
12043;DHT22;6082;49.306;12.862;2024-03-02T04:47:46;6.20;99.90
12043;DHT22;6082;49.306;12.862;2024-03-02T04:50:11;6.20;99.90
12043;DHT22;6082;49.306;12.862;2024-03-02T04:52:37;6.20;99.90
12043;DHT22;6082;49.306;12.862;2024-03-02T04:55:03;6.20;99.90
12043;DHT22;6082;49.306;12.862;2024-03-02T04:57:45;6.20;99.90
12043;DHT22;6082;49.306;12.862;2024-03-02T05:00:12;6.20;99.90
12043;DHT22;6082;49.306;12.862;2024-03-02T05:02:38;6.20;99.90
12043;DHT22;6082;49.306;12.862;2024-03-02T05:05:04;6.30;99.90
12043;DHT22;6082;49.306;12.862;2024-03-02T05:07:30;6.20;99.90
12043;DHT22;6082;49.306;12.862;2024-03-02T05:09:55;6.30;99.90
12043;DHT22;6082;49.306;12.862;2024-03-02T05:12:21;6.30;99.90
12043;DHT22;6082;49.306;12.862;2024-03-02T05:15:06;6.30;99.90
12043;DHT22;6082;49.306;12.862;2024-03-02T05:17:32;6.30;99.90
12043;DHT22;6082;49.306;12.862;2024-03-02T05:19:58;6.30;99.90
12043;DHT22;6082;49.306;12.862;2024-03-02T05:22:24;6.30;99.90
12043;DHT22;6082;49.306;12.862;2024-03-02T05:24:50;6.30;99.90
12043;DHT22;6082;49.306;12.862;2024-03-02T05:27:16;6.30;99.90
12043;DHT22;6082;49.306;12.862;2024-03-02T05:29:42;6.30;99.90
12043;DHT22;6082;49.306;12.862;2024-03-02T05:32:07;6.30;99.90
12043;DHT22;6082;49.306;12.862;2024-03-02T05:34:34;6.30;99.90
12043;DHT22;6082;49.306;12.862;2024-03-02T05:37:01;6.20;99.90
12043;DHT22;6082;49.306;12.862;2024-03-02T05:39:27;6.20;99.90
12043;DHT22;6082;49.306;12.862;2024-03-02T05:41:53;6.20;99.90
12043;DHT22;6082;49.306;12.862;2024-03-02T05:44:18;6.20;99.90
12043;DHT22;6082;49.306;12.862;2024-03-02T05:46:45;6.20;99.90
12043;DHT22;6082;49.306;12.862;2024-03-02T05:49:11;6.20;99.90
12043;DHT22;6082;49.306;12.862;2024-03-02T05:51:37;6.20;99.90
12043;DHT22;6082;49.306;12.862;2024-03-02T05:54:03;6.20;99.90
12043;DHT22;6082;49.306;12.862;2024-03-02T05:56:28;6.20;99.90
12043;DHT22;6082;49.306;12.862;2024-03-02T05:58:54;6.20;99.90
12043;DHT22;6082;49.306;12.862;2024-03-02T06:01:34;6.20;99.90
12043;DHT22;6082;49.306;12.862;2024-03-02T06:04:00;6.20;99.90
12043;DHT22;6082;49.306;12.862;2024-03-02T06:06:26;6.20;99.90
12043;DHT22;6082;49.306;12.862;2024-03-02T06:08:52;6.20;99.90
12043;DHT22;6082;49.306;12.862;2024-03-02T06:11:21;6.20;99.90
12043;DHT22;6082;49.306;12.862;2024-03-02T06:13:47;6.20;99.90
12043;DHT22;6082;49.306;12.862;2024-03-02T06:16:12;6.20;99.90
12043;DHT22;6082;49.306;12.862;2024-03-02T06:18:39;6.20;99.90
12043;DHT22;6082;49.306;12.862;2024-03-02T06:21:04;6.20;99.90
12043;DHT22;6082;49.306;12.862;2024-03-02T06:23:30;6.20;99.90
12043;DHT22;6082;49.306;12.862;2024-03-02T06:25:56;6.20;99.90
12043;DHT22;6082;49.306;12.862;2024-03-02T06:28:22;6.20;99.90
12043;DHT22;6082;49.306;12.862;2024-03-02T06:30:47;6.20;99.90
12043;DHT22;6082;49.306;12.862;2024-03-02T06:33:13;6.20;99.90
12043;DHT22;6082;49.306;12.862;2024-03-02T06:35:39;6.20;99.90
12043;DHT22;6082;49.306;12.862;2024-03-02T06:38:04;6.20;99.90
12043;DHT22;6082;49.306;12.862;2024-03-02T06:40:30;6.20;99.90
12043;DHT22;6082;49.306;12.862;2024-03-02T06:42:56;6.20;99.90
12043;DHT22;6082;49.306;12.862;2024-03-02T06:45:21;6.20;99.90
12043;DHT22;6082;49.306;12.862;2024-03-02T06:47:47;6.20;99.90
12043;DHT22;6082;49.306;12.862;2024-03-02T06:50:13;6.20;99.90
12043;DHT22;6082;49.306;12.862;2024-03-02T06:52:39;6.30;99.90
12043;DHT22;6082;49.306;12.862;2024-03-02T06:55:05;6.30;99.90
12043;DHT22;6082;49.306;12.862;2024-03-02T06:57:31;6.30;99.90
12043;DHT22;6082;49.306;12.862;2024-03-02T06:59:57;6.30;99.90
12043;DHT22;6082;49.306;12.862;2024-03-02T07:02:24;6.30;99.90
12043;DHT22;6082;49.306;12.862;2024-03-02T07:04:55;6.30;99.90
12043;DHT22;6082;49.306;12.862;2024-03-02T07:07:22;6.30;99.90
12043;DHT22;6082;49.306;12.862;2024-03-02T07:09:48;6.40;99.90
12043;DHT22;6082;49.306;12.862;2024-03-02T07:12:14;6.40;99.90
12043;DHT22;6082;49.306;12.862;2024-03-02T07:14:40;6.40;99.90
12043;DHT22;6082;49.306;12.862;2024-03-02T07:17:34;6.40;99.90
12043;DHT22;6082;49.306;12.862;2024-03-02T07:20:02;6.40;99.90
12043;DHT22;6082;49.306;12.862;2024-03-02T07:22:29;6.50;99.90
12043;DHT22;6082;49.306;12.862;2024-03-02T07:24:55;6.50;99.90
12043;DHT22;6082;49.306;12.862;2024-03-02T07:27:21;6.50;99.90
12043;DHT22;6082;49.306;12.862;2024-03-02T07:29:47;6.50;99.90
12043;DHT22;6082;49.306;12.862;2024-03-02T07:32:12;6.50;99.90
12043;DHT22;6082;49.306;12.862;2024-03-02T07:34:38;6.60;99.90
12043;DHT22;6082;49.306;12.862;2024-03-02T07:37:04;6.60;99.90
12043;DHT22;6082;49.306;12.862;2024-03-02T07:39:30;6.60;99.90
12043;DHT22;6082;49.306;12.862;2024-03-02T07:41:56;6.70;99.90
12043;DHT22;6082;49.306;12.862;2024-03-02T07:44:22;6.70;99.90
12043;DHT22;6082;49.306;12.862;2024-03-02T07:46:49;6.70;99.90
12043;DHT22;6082;49.306;12.862;2024-03-02T07:49:18;6.70;99.90
12043;DHT22;6082;49.306;12.862;2024-03-02T07:51:44;6.70;99.90
12043;DHT22;6082;49.306;12.862;2024-03-02T07:54:10;6.80;99.90
12043;DHT22;6082;49.306;12.862;2024-03-02T07:56:36;6.80;99.90
12043;DHT22;6082;49.306;12.862;2024-03-02T07:59:03;6.90;99.90
12043;DHT22;6082;49.306;12.862;2024-03-02T08:01:29;6.90;99.90
12043;DHT22;6082;49.306;12.862;2024-03-02T08:03:59;6.90;99.90
12043;DHT22;6082;49.306;12.862;2024-03-02T08:06:27;6.90;99.90
12043;DHT22;6082;49.306;12.862;2024-03-02T08:08:56;6.90;99.90
12043;DHT22;6082;49.306;12.862;2024-03-02T08:11:22;7.00;99.90
12043;DHT22;6082;49.306;12.862;2024-03-02T08:13:48;7.00;99.90
12043;DHT22;6082;49.306;12.862;2024-03-02T08:16:15;7.00;99.90
12043;DHT22;6082;49.306;12.862;2024-03-02T08:18:41;7.10;99.90
12043;DHT22;6082;49.306;12.862;2024-03-02T08:21:07;7.10;99.90
12043;DHT22;6082;49.306;12.862;2024-03-02T08:23:34;7.10;99.90
12043;DHT22;6082;49.306;12.862;2024-03-02T08:26:00;7.10;99.90
12043;DHT22;6082;49.306;12.862;2024-03-02T08:28:25;7.10;99.90
12043;DHT22;6082;49.306;12.862;2024-03-02T08:30:51;7.20;99.90
12043;DHT22;6082;49.306;12.862;2024-03-02T08:33:17;7.20;99.90
12043;DHT22;6082;49.306;12.862;2024-03-02T08:35:43;7.30;99.90
12043;DHT22;6082;49.306;12.862;2024-03-02T08:38:08;7.40;99.90
12043;DHT22;6082;49.306;12.862;2024-03-02T08:40:34;7.40;99.90
12043;DHT22;6082;49.306;12.862;2024-03-02T08:43:00;7.50;99.90
12043;DHT22;6082;49.306;12.862;2024-03-02T08:45:26;7.50;99.90
12043;DHT22;6082;49.306;12.862;2024-03-02T08:47:51;7.60;99.90
12043;DHT22;6082;49.306;12.862;2024-03-02T08:50:18;7.70;99.90
12043;DHT22;6082;49.306;12.862;2024-03-02T08:52:43;7.70;99.90
12043;DHT22;6082;49.306;12.862;2024-03-02T08:55:09;7.70;99.90
12043;DHT22;6082;49.306;12.862;2024-03-02T08:57:36;7.80;99.90
12043;DHT22;6082;49.306;12.862;2024-03-02T09:00:02;7.80;99.90
12043;DHT22;6082;49.306;12.862;2024-03-02T09:02:28;7.90;99.90
12043;DHT22;6082;49.306;12.862;2024-03-02T09:04:54;7.90;99.90
12043;DHT22;6082;49.306;12.862;2024-03-02T09:07:20;8.00;99.90
12043;DHT22;6082;49.306;12.862;2024-03-02T09:09:45;8.00;99.90
12043;DHT22;6082;49.306;12.862;2024-03-02T09:12:11;8.00;99.90
12043;DHT22;6082;49.306;12.862;2024-03-02T09:14:38;8.00;99.90
12043;DHT22;6082;49.306;12.862;2024-03-02T09:17:03;8.00;99.90
12043;DHT22;6082;49.306;12.862;2024-03-02T09:19:29;8.00;99.90
12043;DHT22;6082;49.306;12.862;2024-03-02T09:21:55;8.00;99.90
12043;DHT22;6082;49.306;12.862;2024-03-02T09:24:21;8.10;99.90
12043;DHT22;6082;49.306;12.862;2024-03-02T09:26:47;8.20;99.90
12043;DHT22;6082;49.306;12.862;2024-03-02T09:29:13;8.20;99.90
12043;DHT22;6082;49.306;12.862;2024-03-02T09:31:43;8.20;99.90
12043;DHT22;6082;49.306;12.862;2024-03-02T09:34:09;8.30;99.90
12043;DHT22;6082;49.306;12.862;2024-03-02T09:36:35;8.30;99.90
12043;DHT22;6082;49.306;12.862;2024-03-02T09:39:00;8.30;99.90
12043;DHT22;6082;49.306;12.862;2024-03-02T09:41:26;8.40;99.90
12043;DHT22;6082;49.306;12.862;2024-03-02T09:43:52;8.40;99.90
12043;DHT22;6082;49.306;12.862;2024-03-02T09:46:18;8.50;99.90
12043;DHT22;6082;49.306;12.862;2024-03-02T09:48:45;8.50;99.90
12043;DHT22;6082;49.306;12.862;2024-03-02T09:51:11;8.70;99.90
12043;DHT22;6082;49.306;12.862;2024-03-02T09:53:37;8.70;99.90
12043;DHT22;6082;49.306;12.862;2024-03-02T09:56:03;8.90;99.90
12043;DHT22;6082;49.306;12.862;2024-03-02T09:58:30;9.00;99.90
12043;DHT22;6082;49.306;12.862;2024-03-02T10:00:56;9.10;99.90
12043;DHT22;6082;49.306;12.862;2024-03-02T10:03:23;9.20;99.90
12043;DHT22;6082;49.306;12.862;2024-03-02T10:05:52;9.30;99.90
12043;DHT22;6082;49.306;12.862;2024-03-02T10:08:18;9.30;99.90
12043;DHT22;6082;49.306;12.862;2024-03-02T10:10:44;9.40;99.90
12043;DHT22;6082;49.306;12.862;2024-03-02T10:13:11;9.50;99.90
12043;DHT22;6082;49.306;12.862;2024-03-02T10:15:38;9.50;99.90
12043;DHT22;6082;49.306;12.862;2024-03-02T10:18:09;9.60;99.90
12043;DHT22;6082;49.306;12.862;2024-03-02T10:20:36;9.60;99.90
12043;DHT22;6082;49.306;12.862;2024-03-02T10:23:13;9.60;99.90
12043;DHT22;6082;49.306;12.862;2024-03-02T10:25:39;9.60;99.90
12043;DHT22;6082;49.306;12.862;2024-03-02T10:28:05;9.70;99.90
12043;DHT22;6082;49.306;12.862;2024-03-02T10:30:32;9.80;99.90
12043;DHT22;6082;49.306;12.862;2024-03-02T10:32:58;9.80;99.90
12043;DHT22;6082;49.306;12.862;2024-03-02T10:35:24;9.90;99.90
12043;DHT22;6082;49.306;12.862;2024-03-02T10:37:52;10.00;99.90
12043;DHT22;6082;49.306;12.862;2024-03-02T10:40:20;10.00;99.90
12043;DHT22;6082;49.306;12.862;2024-03-02T10:42:47;10.10;99.90
12043;DHT22;6082;49.306;12.862;2024-03-02T10:45:15;10.20;99.90
12043;DHT22;6082;49.306;12.862;2024-03-02T10:47:43;10.40;99.90
12043;DHT22;6082;49.306;12.862;2024-03-02T10:50:09;10.50;99.90
12043;DHT22;6082;49.306;12.862;2024-03-02T10:52:36;10.60;99.90
12043;DHT22;6082;49.306;12.862;2024-03-02T10:55:02;10.60;99.90
12043;DHT22;6082;49.306;12.862;2024-03-02T10:57:52;10.70;99.90
12043;DHT22;6082;49.306;12.862;2024-03-02T11:00:24;10.80;99.90
12043;DHT22;6082;49.306;12.862;2024-03-02T11:03:04;10.90;99.90
12043;DHT22;6082;49.306;12.862;2024-03-02T11:05:34;11.00;99.90
12043;DHT22;6082;49.306;12.862;2024-03-02T11:08:03;11.00;99.90
12043;DHT22;6082;49.306;12.862;2024-03-02T11:10:37;11.00;99.90
12043;DHT22;6082;49.306;12.862;2024-03-02T11:13:09;11.10;99.90
12043;DHT22;6082;49.306;12.862;2024-03-02T11:15:36;11.10;99.90
12043;DHT22;6082;49.306;12.862;2024-03-02T11:18:06;11.20;99.90
12043;DHT22;6082;49.306;12.862;2024-03-02T11:20:36;11.40;99.90
12043;DHT22;6082;49.306;12.862;2024-03-02T11:23:08;11.50;99.90
12043;DHT22;6082;49.306;12.862;2024-03-02T11:25:35;11.60;99.90
12043;DHT22;6082;49.306;12.862;2024-03-02T11:33:00;11.80;99.90
12043;DHT22;6082;49.306;12.862;2024-03-02T11:35:26;11.80;99.90
12043;DHT22;6082;49.306;12.862;2024-03-02T11:37:54;11.70;99.90
12043;DHT22;6082;49.306;12.862;2024-03-02T11:40:25;11.70;99.90
12043;DHT22;6082;49.306;12.862;2024-03-02T11:42:51;11.70;99.90
12043;DHT22;6082;49.306;12.862;2024-03-02T11:45:17;11.70;99.90
12043;DHT22;6082;49.306;12.862;2024-03-02T11:47:50;11.70;99.90
12043;DHT22;6082;49.306;12.862;2024-03-02T11:52:55;11.70;99.90
12043;DHT22;6082;49.306;12.862;2024-03-02T11:55:21;11.80;99.90
12043;DHT22;6082;49.306;12.862;2024-03-02T11:57:49;11.70;99.90
12043;DHT22;6082;49.306;12.862;2024-03-02T12:00:19;11.80;99.90
12043;DHT22;6082;49.306;12.862;2024-03-02T12:05:27;11.70;99.90
12043;DHT22;6082;49.306;12.862;2024-03-02T12:07:57;11.70;99.90
12043;DHT22;6082;49.306;12.862;2024-03-02T12:10:23;11.70;99.90
12043;DHT22;6082;49.306;12.862;2024-03-02T12:12:58;11.60;99.90
12043;DHT22;6082;49.306;12.862;2024-03-02T12:15:29;11.60;99.90
12043;DHT22;6082;49.306;12.862;2024-03-02T12:17:56;11.50;99.90
12043;DHT22;6082;49.306;12.862;2024-03-02T12:20:23;11.50;99.90
12043;DHT22;6082;49.306;12.862;2024-03-02T12:22:53;11.50;99.90
12043;DHT22;6082;49.306;12.862;2024-03-02T12:25:23;11.60;99.90
12043;DHT22;6082;49.306;12.862;2024-03-02T12:27:51;11.60;99.90
12043;DHT22;6082;49.306;12.862;2024-03-02T12:30:18;11.60;99.90
12043;DHT22;6082;49.306;12.862;2024-03-02T12:32:45;11.70;99.90
12043;DHT22;6082;49.306;12.862;2024-03-02T12:35:11;11.80;99.90
12043;DHT22;6082;49.306;12.862;2024-03-02T12:37:44;11.90;99.90
12043;DHT22;6082;49.306;12.862;2024-03-02T12:40:11;11.90;99.90
12043;DHT22;6082;49.306;12.862;2024-03-02T12:42:38;12.00;99.90
12043;DHT22;6082;49.306;12.862;2024-03-02T12:45:05;12.00;99.90
12043;DHT22;6082;49.306;12.862;2024-03-02T12:47:33;12.10;99.90
12043;DHT22;6082;49.306;12.862;2024-03-02T12:49:59;12.00;99.90
12043;DHT22;6082;49.306;12.862;2024-03-02T12:52:25;12.00;99.90
12043;DHT22;6082;49.306;12.862;2024-03-02T12:54:51;12.00;99.90
12043;DHT22;6082;49.306;12.862;2024-03-02T12:57:18;12.00;99.90
12043;DHT22;6082;49.306;12.862;2024-03-02T12:59:47;12.00;99.90
12043;DHT22;6082;49.306;12.862;2024-03-02T13:02:19;12.00;99.90
12043;DHT22;6082;49.306;12.862;2024-03-02T13:04:52;12.00;99.90
12043;DHT22;6082;49.306;12.862;2024-03-02T13:07:20;12.00;99.90
12043;DHT22;6082;49.306;12.862;2024-03-02T13:09:48;12.00;99.90
12043;DHT22;6082;49.306;12.862;2024-03-02T13:12:16;12.00;99.90
12043;DHT22;6082;49.306;12.862;2024-03-02T13:14:42;12.00;99.90
12043;DHT22;6082;49.306;12.862;2024-03-02T13:17:08;12.10;99.90
12043;DHT22;6082;49.306;12.862;2024-03-02T13:19:35;12.20;99.90
12043;DHT22;6082;49.306;12.862;2024-03-02T13:22:00;12.20;99.90
12043;DHT22;6082;49.306;12.862;2024-03-02T13:24:29;12.10;99.90
12043;DHT22;6082;49.306;12.862;2024-03-02T13:26:55;12.10;99.90
12043;DHT22;6082;49.306;12.862;2024-03-02T13:29:23;12.00;99.90
12043;DHT22;6082;49.306;12.862;2024-03-02T13:31:49;11.90;99.90
12043;DHT22;6082;49.306;12.862;2024-03-02T13:34:15;11.90;99.90
12043;DHT22;6082;49.306;12.862;2024-03-02T13:36:41;11.90;99.90
12043;DHT22;6082;49.306;12.862;2024-03-02T13:39:07;11.80;99.90
12043;DHT22;6082;49.306;12.862;2024-03-02T13:41:35;11.80;99.90
12043;DHT22;6082;49.306;12.862;2024-03-02T13:44:01;11.80;99.90
12043;DHT22;6082;49.306;12.862;2024-03-02T13:46:28;11.80;99.90
12043;DHT22;6082;49.306;12.862;2024-03-02T13:48:54;11.80;99.90
12043;DHT22;6082;49.306;12.862;2024-03-02T13:51:20;11.80;99.90
12043;DHT22;6082;49.306;12.862;2024-03-02T13:53:46;11.80;99.90
12043;DHT22;6082;49.306;12.862;2024-03-02T13:56:12;11.80;99.90
12043;DHT22;6082;49.306;12.862;2024-03-02T13:58:37;11.80;99.90
12043;DHT22;6082;49.306;12.862;2024-03-02T14:01:04;11.90;99.90
12043;DHT22;6082;49.306;12.862;2024-03-02T14:03:31;11.90;99.90
12043;DHT22;6082;49.306;12.862;2024-03-02T14:05:56;11.90;99.90
12043;DHT22;6082;49.306;12.862;2024-03-02T14:08:23;11.90;99.90
12043;DHT22;6082;49.306;12.862;2024-03-02T14:10:49;11.90;99.90
12043;DHT22;6082;49.306;12.862;2024-03-02T14:13:15;11.90;99.90
12043;DHT22;6082;49.306;12.862;2024-03-02T14:15:42;11.90;99.90
12043;DHT22;6082;49.306;12.862;2024-03-02T14:18:08;11.90;99.90
12043;DHT22;6082;49.306;12.862;2024-03-02T14:20:36;11.80;99.90
12043;DHT22;6082;49.306;12.862;2024-03-02T14:23:03;11.80;99.90
12043;DHT22;6082;49.306;12.862;2024-03-02T14:25:31;11.80;99.90
12043;DHT22;6082;49.306;12.862;2024-03-02T14:27:59;11.80;99.90
12043;DHT22;6082;49.306;12.862;2024-03-02T14:30:25;11.80;99.90
12043;DHT22;6082;49.306;12.862;2024-03-02T14:32:51;11.80;99.90
12043;DHT22;6082;49.306;12.862;2024-03-02T14:35:16;11.80;99.90
12043;DHT22;6082;49.306;12.862;2024-03-02T14:37:42;11.80;99.90
12043;DHT22;6082;49.306;12.862;2024-03-02T14:40:08;11.80;99.90
12043;DHT22;6082;49.306;12.862;2024-03-02T14:42:35;11.90;99.90
12043;DHT22;6082;49.306;12.862;2024-03-02T14:45:01;11.90;99.90
12043;DHT22;6082;49.306;12.862;2024-03-02T14:47:31;11.80;99.90
12043;DHT22;6082;49.306;12.862;2024-03-02T14:49:58;11.80;99.90
12043;DHT22;6082;49.306;12.862;2024-03-02T14:52:23;11.80;99.90
12043;DHT22;6082;49.306;12.862;2024-03-02T14:54:49;11.80;99.90
12043;DHT22;6082;49.306;12.862;2024-03-02T14:57:15;11.80;99.90
12043;DHT22;6082;49.306;12.862;2024-03-02T14:59:41;11.80;99.90
12043;DHT22;6082;49.306;12.862;2024-03-02T15:02:08;11.80;99.90
12043;DHT22;6082;49.306;12.862;2024-03-02T15:04:34;11.90;99.90
12043;DHT22;6082;49.306;12.862;2024-03-02T15:07:00;12.00;99.90
12043;DHT22;6082;49.306;12.862;2024-03-02T15:09:25;12.00;99.90
12043;DHT22;6082;49.306;12.862;2024-03-02T15:11:51;12.10;99.90
12043;DHT22;6082;49.306;12.862;2024-03-02T15:14:17;12.10;99.90
12043;DHT22;6082;49.306;12.862;2024-03-02T15:16:43;12.10;99.90
12043;DHT22;6082;49.306;12.862;2024-03-02T15:19:08;12.20;99.90
12043;DHT22;6082;49.306;12.862;2024-03-02T15:21:34;12.30;99.90
12043;DHT22;6082;49.306;12.862;2024-03-02T15:24:00;12.30;99.90
12043;DHT22;6082;49.306;12.862;2024-03-02T15:26:26;12.30;99.90
12043;DHT22;6082;49.306;12.862;2024-03-02T15:28:52;12.30;99.90
12043;DHT22;6082;49.306;12.862;2024-03-02T15:31:20;12.20;99.90
12043;DHT22;6082;49.306;12.862;2024-03-02T15:33:46;12.20;99.90
12043;DHT22;6082;49.306;12.862;2024-03-02T15:36:12;12.10;99.90
12043;DHT22;6082;49.306;12.862;2024-03-02T15:38:38;12.10;99.90
12043;DHT22;6082;49.306;12.862;2024-03-02T15:41:04;12.10;99.90
12043;DHT22;6082;49.306;12.862;2024-03-02T15:43:30;12.10;99.90
12043;DHT22;6082;49.306;12.862;2024-03-02T15:45:56;12.10;99.90
12043;DHT22;6082;49.306;12.862;2024-03-02T15:48:22;12.00;99.90
12043;DHT22;6082;49.306;12.862;2024-03-02T15:50:49;12.00;99.90
12043;DHT22;6082;49.306;12.862;2024-03-02T15:53:18;12.00;99.90